Terminal Aerodrome Forecast
Issued by NWS

Home | Current Version | Previous Version | Text Only | Print | Product List | Glossary On
Versions: 1 2 3 4 5 6 7 8 9 10 11 12
000
FTUS44 KTSA 051100
TAFRVS
TAF
KRVS 051120Z 0512/0612 13005KT P6SM SCT250 WS020/17040KT
     FM051500 17012G18KT P6SM BKN250
     FM051900 17014G20KT P6SM SCT050 BKN150
     FM060000 16012KT P6SM BKN050
     FM060300 16010KT P6SM VCTS BKN050CB
      TEMPO 0603/0607 5SM -TSRA BR BKN050CB
     FM060700 15010KT 5SM -TSRA BKN030CB=

USA.gov is the U.S. government's official web portal to all federal, state and local government web resources and services.